< Typhoon 201506 2015 Season Typhoon 201508 >
Typhoon 201507 (DOLPHIN)
General InformationTrack Information on Google MapsDetailed Wind InformationForecast History on Google MapsAccess Analytics MapList of All Images || NewsDisaster Info.WeblogTrackbackTyphoon FrontTwiphoonTyphoon Now!Typhoon ImaginationDisaster Info. XMLResourceGoogle EarthGE AnimationAtom FeedGeoJSON
Detalied Best Track (Time Zone = UTC)
Year Month Day Hour Lat. Long. Pressure (hPa) Wind (kt) Class Image Chart
2015 5 6 12 4.0 157.9 1004 0 2 Image Chart
2015 5 6 18 4.0 158.7 1004 0 2 Image Chart
2015 5 7 00 3.9 159.5 1004 0 2 Image Chart
2015 5 7 06 3.6 160.2 1004 0 2 Image Chart
2015 5 7 12 3.5 160.7 1004 0 2 Image Chart
2015 5 7 18 3.3 161.1 1004 0 2 Image Chart
2015 5 8 00 3.3 161.7 1004 0 2 Image Chart
2015 5 8 06 3.4 162.1 1002 0 2 Image Chart
2015 5 8 12 3.6 162.4 1004 0 2 Image Chart
2015 5 8 18 3.9 162.6 1004 0 2 Image Chart
2015 5 9 00 4.3 162.5 1004 0 2 Image Chart
2015 5 9 06 4.7 162.4 1004 0 2 Image Chart
2015 5 9 12 5.2 161.9 1000 35 3 Image Chart
2015 5 9 18 5.7 161.0 1000 35 3 Image Chart
2015 5 10 00 6.1 160.2 1000 35 3 Image Chart
2015 5 10 06 6.7 160.0 1000 35 3 Image Chart
2015 5 10 12 7.6 160.1 998 40 3 Image Chart
2015 5 10 18 8.5 160.1 998 40 3 Image Chart
2015 5 11 00 9.1 160.0 998 40 3 Image Chart
2015 5 11 06 9.8 160.0 998 40 3 Image Chart
2015 5 11 12 10.0 159.4 998 40 3 Image Chart
2015 5 11 18 10.0 159.0 994 45 3 Image Chart
2015 5 12 00 10.1 158.5 990 50 4 Image Chart
2015 5 12 06 10.0 158.1 985 55 4 Image Chart
2015 5 12 12 9.8 157.5 985 55 4 Image Chart
2015 5 12 18 9.8 157.0 985 55 4 Image Chart
2015 5 13 00 10.2 156.2 975 65 5 Image Chart
2015 5 13 06 10.3 155.4 970 70 5 Image Chart
2015 5 13 12 10.5 154.2 970 70 5 Image Chart
2015 5 13 18 10.9 153.6 970 70 5 Image Chart
2015 5 14 00 11.4 152.1 970 70 5 Image Chart
2015 5 14 06 12.0 151.1 970 70 5 Image Chart
2015 5 14 12 12.4 149.7 970 70 5 Image Chart
2015 5 14 18 12.7 148.2 970 70 5 Image Chart
2015 5 15 00 13.2 146.8 955 80 5 Image Chart
2015 5 15 06 13.6 145.7 955 80 5 Image Chart
2015 5 15 12 14.0 144.6 955 80 5 Image Chart
2015 5 15 18 14.8 143.5 935 95 5 Image Chart
2015 5 16 00 15.2 142.5 935 95 5 Image Chart
2015 5 16 06 15.8 141.5 925 100 5 Image Chart
2015 5 16 12 16.5 140.7 925 100 5 Image Chart
2015 5 16 18 17.2 139.8 925 100 5 Image Chart
2015 5 17 00 17.8 139.1 935 95 5 Image Chart
2015 5 17 06 18.6 138.7 935 95 5 Image Chart
2015 5 17 12 19.3 138.6 935 95 5 Image Chart
2015 5 17 18 20.0 138.4 935 95 5 Image Chart
2015 5 18 00 20.8 138.4 945 90 5 Image Chart
2015 5 18 06 21.5 138.6 955 80 5 Image Chart
2015 5 18 12 22.2 138.9 955 80 5 Image Chart
2015 5 18 18 22.8 139.2 960 75 5 Image Chart
2015 5 19 00 23.6 139.4 960 75 5 Image Chart
2015 5 19 06 24.6 139.9 965 70 5 Image Chart
2015 5 19 09 24.9 140.4 965 70 5 Image Chart
2015 5 19 12 25.4 141.1 965 70 5 Image Chart
2015 5 19 15 26.1 141.7 965 70 5 Image Chart
2015 5 19 18 26.7 142.3 970 65 5 Image Chart
2015 5 19 21 27.6 143.0 970 65 5 Image Chart
2015 5 20 00 28.0 144.2 970 65 5 Image Chart
2015 5 20 06 29.8 145.7 975 60 4 Image Chart
2015 5 20 12 32.7 148.2 980 55 4 Image Chart
2015 5 20 18 36.0 152.0 980 55 4 Image Chart
2015 5 21 00 39.7 155.7 980 0 6 Image Chart
2015 5 21 06 43.3 160.3 980 0 6 Image Chart
2015 5 21 12 47.5 164.9 980 0 6 Image Chart
2015 5 21 18 50.8 167.9 978 0 6 Image Chart
2015 5 22 00 52.9 171.7 972 0 6 Image Chart
2015 5 22 06 55.0 172.1 970 0 6 Image Chart
2015 5 22 12 56.2 172.5 968 0 6 Image Chart
2015 5 22 18 56.6 172.6 968 0 6 Image Chart
2015 5 23 00 56.4 172.6 970 0 6 Image Chart
2015 5 23 06 56.1 173.3 972 0 6 Image Chart
2015 5 23 12 56.0 174.8 976 0 6 Image Chart
2015 5 23 18 55.7 176.4 980 0 6 Image Chart
2015 5 24 00 56.0 178.4 984 0 6 Image Chart
2015 5 24 06 56.1 180.3 986 0 6 Image Chart
Japan Meteorological Agency Best Track Data | Correction Date : 2015-06-22
< Typhoon 201506 2015 Season Typhoon 201508 >

Help